sensor_id;sensor_type;location;lat;lon;timestamp;temperature;humidity
47310;DHT22;33046;52.270;6.832;2022-12-29T00:02:04;11.00;99.90
47310;DHT22;33046;52.270;6.832;2022-12-29T00:04:13;11.00;99.90
47310;DHT22;33046;52.270;6.832;2022-12-29T00:06:22;11.00;99.90
47310;DHT22;33046;52.270;6.832;2022-12-29T00:08:29;11.00;99.90
47310;DHT22;33046;52.270;6.832;2022-12-29T00:10:35;11.00;99.90
47310;DHT22;33046;52.270;6.832;2022-12-29T00:12:42;11.10;99.90
47310;DHT22;33046;52.270;6.832;2022-12-29T00:14:49;11.10;99.90
47310;DHT22;33046;52.270;6.832;2022-12-29T00:16:56;11.10;99.90
47310;DHT22;33046;52.270;6.832;2022-12-29T00:19:03;11.10;99.90
47310;DHT22;33046;52.270;6.832;2022-12-29T00:21:11;11.10;99.90
47310;DHT22;33046;52.270;6.832;2022-12-29T00:23:21;11.10;99.90
47310;DHT22;33046;52.270;6.832;2022-12-29T00:25:28;11.10;99.90
47310;DHT22;33046;52.270;6.832;2022-12-29T00:27:35;11.10;99.90
47310;DHT22;33046;52.270;6.832;2022-12-29T00:29:42;11.10;99.90
47310;DHT22;33046;52.270;6.832;2022-12-29T00:31:49;11.10;99.90
47310;DHT22;33046;52.270;6.832;2022-12-29T00:33:55;11.10;99.90
47310;DHT22;33046;52.270;6.832;2022-12-29T00:36:04;11.20;99.90
47310;DHT22;33046;52.270;6.832;2022-12-29T00:38:12;11.20;99.90
47310;DHT22;33046;52.270;6.832;2022-12-29T00:40:21;11.20;99.90
47310;DHT22;33046;52.270;6.832;2022-12-29T00:42:27;11.10;99.90
47310;DHT22;33046;52.270;6.832;2022-12-29T00:44:34;11.20;99.90
47310;DHT22;33046;52.270;6.832;2022-12-29T00:46:42;11.10;99.90
47310;DHT22;33046;52.270;6.832;2022-12-29T00:48:49;11.20;99.90
47310;DHT22;33046;52.270;6.832;2022-12-29T00:50:56;11.10;99.90
47310;DHT22;33046;52.270;6.832;2022-12-29T00:53:03;11.20;99.90
47310;DHT22;33046;52.270;6.832;2022-12-29T00:55:09;11.20;99.90
47310;DHT22;33046;52.270;6.832;2022-12-29T00:57:18;11.20;99.90
47310;DHT22;33046;52.270;6.832;2022-12-29T00:59:25;11.20;99.90
47310;DHT22;33046;52.270;6.832;2022-12-29T01:01:33;11.20;99.90
47310;DHT22;33046;52.270;6.832;2022-12-29T01:03:39;11.20;99.90
47310;DHT22;33046;52.270;6.832;2022-12-29T01:05:46;11.20;99.90
47310;DHT22;33046;52.270;6.832;2022-12-29T01:07:53;11.30;99.90
47310;DHT22;33046;52.270;6.832;2022-12-29T01:10:00;11.30;99.90
47310;DHT22;33046;52.270;6.832;2022-12-29T01:12:08;11.20;99.90
47310;DHT22;33046;52.270;6.832;2022-12-29T01:14:17;11.20;99.90
47310;DHT22;33046;52.270;6.832;2022-12-29T01:16:24;11.20;99.90
47310;DHT22;33046;52.270;6.832;2022-12-29T01:18:31;11.20;99.90
47310;DHT22;33046;52.270;6.832;2022-12-29T01:20:38;11.20;99.90
47310;DHT22;33046;52.270;6.832;2022-12-29T01:22:45;11.20;99.90
47310;DHT22;33046;52.270;6.832;2022-12-29T01:24:52;11.20;99.90
47310;DHT22;33046;52.270;6.832;2022-12-29T01:26:59;11.30;99.90
47310;DHT22;33046;52.270;6.832;2022-12-29T01:29:06;11.20;99.90
47310;DHT22;33046;52.270;6.832;2022-12-29T01:31:15;11.30;99.90
47310;DHT22;33046;52.270;6.832;2022-12-29T01:33:22;11.30;99.90
47310;DHT22;33046;52.270;6.832;2022-12-29T01:35:28;11.30;99.90
47310;DHT22;33046;52.270;6.832;2022-12-29T01:37:37;11.30;99.90
47310;DHT22;33046;52.270;6.832;2022-12-29T01:39:44;11.30;99.90
47310;DHT22;33046;52.270;6.832;2022-12-29T01:41:50;11.30;99.90
47310;DHT22;33046;52.270;6.832;2022-12-29T01:43:59;11.30;99.90
47310;DHT22;33046;52.270;6.832;2022-12-29T01:46:15;11.30;99.90
47310;DHT22;33046;52.270;6.832;2022-12-29T01:48:25;11.30;99.90
47310;DHT22;33046;52.270;6.832;2022-12-29T01:50:35;11.30;99.90
47310;DHT22;33046;52.270;6.832;2022-12-29T01:52:45;11.30;99.90
47310;DHT22;33046;52.270;6.832;2022-12-29T01:54:55;11.30;99.90
47310;DHT22;33046;52.270;6.832;2022-12-29T01:57:06;11.30;99.90
47310;DHT22;33046;52.270;6.832;2022-12-29T01:59:17;11.30;99.90
47310;DHT22;33046;52.270;6.832;2022-12-29T02:01:27;11.30;99.90
47310;DHT22;33046;52.270;6.832;2022-12-29T02:03:35;11.30;99.90
47310;DHT22;33046;52.270;6.832;2022-12-29T02:05:47;11.20;99.90
47310;DHT22;33046;52.270;6.832;2022-12-29T02:07:57;11.20;99.90
47310;DHT22;33046;52.270;6.832;2022-12-29T02:10:05;11.20;99.90
47310;DHT22;33046;52.270;6.832;2022-12-29T02:12:12;11.20;99.90
47310;DHT22;33046;52.270;6.832;2022-12-29T02:14:19;11.20;99.90
47310;DHT22;33046;52.270;6.832;2022-12-29T02:16:43;11.20;99.90
47310;DHT22;33046;52.270;6.832;2022-12-29T02:19:03;11.20;99.90
47310;DHT22;33046;52.270;6.832;2022-12-29T02:24:15;11.30;99.90
47310;DHT22;33046;52.270;6.832;2022-12-29T02:31:49;11.20;99.90
47310;DHT22;33046;52.270;6.832;2022-12-29T02:34:06;11.20;99.90
47310;DHT22;33046;52.270;6.832;2022-12-29T02:36:22;11.20;99.90
47310;DHT22;33046;52.270;6.832;2022-12-29T02:38:45;11.20;99.90
47310;DHT22;33046;52.270;6.832;2022-12-29T02:40:58;11.20;99.90
47310;DHT22;33046;52.270;6.832;2022-12-29T02:43:17;11.20;99.90
47310;DHT22;33046;52.270;6.832;2022-12-29T02:45:30;11.30;99.90
47310;DHT22;33046;52.270;6.832;2022-12-29T02:47:42;11.30;99.90
47310;DHT22;33046;52.270;6.832;2022-12-29T02:49:59;11.30;99.90
47310;DHT22;33046;52.270;6.832;2022-12-29T02:52:13;11.30;99.90
47310;DHT22;33046;52.270;6.832;2022-12-29T02:54:22;11.30;99.90
47310;DHT22;33046;52.270;6.832;2022-12-29T02:56:30;11.30;99.90
47310;DHT22;33046;52.270;6.832;2022-12-29T02:58:37;11.30;99.90
47310;DHT22;33046;52.270;6.832;2022-12-29T03:03:19;11.30;99.90
47310;DHT22;33046;52.270;6.832;2022-12-29T03:08:18;11.30;99.90
47310;DHT22;33046;52.270;6.832;2022-12-29T03:10:35;11.30;99.90
47310;DHT22;33046;52.270;6.832;2022-12-29T03:12:48;11.30;99.90
47310;DHT22;33046;52.270;6.832;2022-12-29T03:14:59;11.30;99.90
47310;DHT22;33046;52.270;6.832;2022-12-29T03:17:11;11.40;99.90
47310;DHT22;33046;52.270;6.832;2022-12-29T03:19:24;11.40;99.90
47310;DHT22;33046;52.270;6.832;2022-12-29T03:21:36;11.40;99.90
47310;DHT22;33046;52.270;6.832;2022-12-29T03:23:46;11.40;99.90
47310;DHT22;33046;52.270;6.832;2022-12-29T03:25:58;11.40;99.90
47310;DHT22;33046;52.270;6.832;2022-12-29T03:28:09;11.40;99.90
47310;DHT22;33046;52.270;6.832;2022-12-29T03:30:22;11.40;99.90
47310;DHT22;33046;52.270;6.832;2022-12-29T03:32:33;11.40;99.90
47310;DHT22;33046;52.270;6.832;2022-12-29T03:34:43;11.40;99.90
47310;DHT22;33046;52.270;6.832;2022-12-29T03:36:53;11.40;99.90
47310;DHT22;33046;52.270;6.832;2022-12-29T03:39:03;11.40;99.90
47310;DHT22;33046;52.270;6.832;2022-12-29T03:41:16;11.50;99.90
47310;DHT22;33046;52.270;6.832;2022-12-29T03:43:24;11.50;99.90
47310;DHT22;33046;52.270;6.832;2022-12-29T03:45:32;11.40;99.90
47310;DHT22;33046;52.270;6.832;2022-12-29T03:47:39;11.40;99.90
47310;DHT22;33046;52.270;6.832;2022-12-29T03:49:49;11.40;99.90
47310;DHT22;33046;52.270;6.832;2022-12-29T03:51:56;11.40;99.90
47310;DHT22;33046;52.270;6.832;2022-12-29T03:54:03;11.50;99.90
47310;DHT22;33046;52.270;6.832;2022-12-29T03:56:11;11.40;99.90
47310;DHT22;33046;52.270;6.832;2022-12-29T03:58:18;11.40;99.90
47310;DHT22;33046;52.270;6.832;2022-12-29T04:00:39;11.50;99.90
47310;DHT22;33046;52.270;6.832;2022-12-29T04:02:46;11.50;99.90
47310;DHT22;33046;52.270;6.832;2022-12-29T04:05:00;11.50;99.90
47310;DHT22;33046;52.270;6.832;2022-12-29T04:07:07;11.50;99.90
47310;DHT22;33046;52.270;6.832;2022-12-29T04:09:14;11.50;99.90
47310;DHT22;33046;52.270;6.832;2022-12-29T04:11:25;11.50;99.90
47310;DHT22;33046;52.270;6.832;2022-12-29T04:13:34;11.50;99.90
47310;DHT22;33046;52.270;6.832;2022-12-29T04:15:42;11.60;99.90
47310;DHT22;33046;52.270;6.832;2022-12-29T04:17:50;11.50;99.90
47310;DHT22;33046;52.270;6.832;2022-12-29T04:19:57;11.50;99.90
47310;DHT22;33046;52.270;6.832;2022-12-29T04:22:05;11.50;99.90
47310;DHT22;33046;52.270;6.832;2022-12-29T04:24:13;11.50;99.90
47310;DHT22;33046;52.270;6.832;2022-12-29T04:26:21;11.50;99.90
47310;DHT22;33046;52.270;6.832;2022-12-29T04:28:35;11.60;99.90
47310;DHT22;33046;52.270;6.832;2022-12-29T04:31:04;11.60;99.90
47310;DHT22;33046;52.270;6.832;2022-12-29T04:33:18;11.60;99.90
47310;DHT22;33046;52.270;6.832;2022-12-29T04:35:25;11.60;99.90
47310;DHT22;33046;52.270;6.832;2022-12-29T04:37:33;11.60;99.90
47310;DHT22;33046;52.270;6.832;2022-12-29T04:39:40;11.60;99.90
47310;DHT22;33046;52.270;6.832;2022-12-29T04:41:47;11.60;99.90
47310;DHT22;33046;52.270;6.832;2022-12-29T04:43:58;11.60;99.90
47310;DHT22;33046;52.270;6.832;2022-12-29T04:46:23;11.60;99.90
47310;DHT22;33046;52.270;6.832;2022-12-29T04:48:39;11.60;99.90
47310;DHT22;33046;52.270;6.832;2022-12-29T04:51:12;11.60;99.90
47310;DHT22;33046;52.270;6.832;2022-12-29T04:53:20;11.60;99.90
47310;DHT22;33046;52.270;6.832;2022-12-29T04:55:27;11.60;99.90
47310;DHT22;33046;52.270;6.832;2022-12-29T04:57:34;11.60;99.90
47310;DHT22;33046;52.270;6.832;2022-12-29T04:59:41;11.60;99.90
47310;DHT22;33046;52.270;6.832;2022-12-29T05:01:48;11.60;99.90
47310;DHT22;33046;52.270;6.832;2022-12-29T05:03:55;11.60;99.90
47310;DHT22;33046;52.270;6.832;2022-12-29T05:06:03;11.60;99.90
47310;DHT22;33046;52.270;6.832;2022-12-29T05:08:10;11.60;99.90
47310;DHT22;33046;52.270;6.832;2022-12-29T05:10:18;11.60;99.90
47310;DHT22;33046;52.270;6.832;2022-12-29T05:12:30;11.60;99.90
47310;DHT22;33046;52.270;6.832;2022-12-29T05:14:39;11.60;99.90
47310;DHT22;33046;52.270;6.832;2022-12-29T05:16:47;11.60;99.90
47310;DHT22;33046;52.270;6.832;2022-12-29T05:18:54;11.60;99.90
47310;DHT22;33046;52.270;6.832;2022-12-29T05:21:01;11.60;99.90
47310;DHT22;33046;52.270;6.832;2022-12-29T05:23:08;11.60;99.90
47310;DHT22;33046;52.270;6.832;2022-12-29T05:25:15;11.60;99.90
47310;DHT22;33046;52.270;6.832;2022-12-29T05:27:34;11.60;99.90
47310;DHT22;33046;52.270;6.832;2022-12-29T05:30:05;11.60;99.90
47310;DHT22;33046;52.270;6.832;2022-12-29T05:32:12;11.60;99.90
47310;DHT22;33046;52.270;6.832;2022-12-29T05:34:19;11.60;99.90
47310;DHT22;33046;52.270;6.832;2022-12-29T05:36:26;11.60;99.90
47310;DHT22;33046;52.270;6.832;2022-12-29T05:38:37;11.60;99.90
47310;DHT22;33046;52.270;6.832;2022-12-29T05:40:44;11.60;99.90
47310;DHT22;33046;52.270;6.832;2022-12-29T05:43:11;11.50;99.90
47310;DHT22;33046;52.270;6.832;2022-12-29T05:45:24;11.50;99.90
47310;DHT22;33046;52.270;6.832;2022-12-29T05:47:42;11.50;99.90
47310;DHT22;33046;52.270;6.832;2022-12-29T05:50:08;11.50;99.90
47310;DHT22;33046;52.270;6.832;2022-12-29T05:52:38;11.50;99.90
47310;DHT22;33046;52.270;6.832;2022-12-29T05:54:45;11.50;99.90
47310;DHT22;33046;52.270;6.832;2022-12-29T05:56:55;11.40;99.90
47310;DHT22;33046;52.270;6.832;2022-12-29T05:59:04;11.40;99.90
47310;DHT22;33046;52.270;6.832;2022-12-29T06:01:10;11.40;99.90
47310;DHT22;33046;52.270;6.832;2022-12-29T06:03:17;11.40;99.90
47310;DHT22;33046;52.270;6.832;2022-12-29T06:05:24;11.40;99.90
47310;DHT22;33046;52.270;6.832;2022-12-29T06:07:31;11.30;99.90
47310;DHT22;33046;52.270;6.832;2022-12-29T06:09:38;11.40;99.90
47310;DHT22;33046;52.270;6.832;2022-12-29T06:11:45;11.30;99.90
47310;DHT22;33046;52.270;6.832;2022-12-29T06:13:52;11.30;99.90
47310;DHT22;33046;52.270;6.832;2022-12-29T06:16:01;11.30;99.90
47310;DHT22;33046;52.270;6.832;2022-12-29T06:18:08;11.30;99.90
47310;DHT22;33046;52.270;6.832;2022-12-29T06:20:16;11.30;99.90
47310;DHT22;33046;52.270;6.832;2022-12-29T06:22:23;11.30;99.90
47310;DHT22;33046;52.270;6.832;2022-12-29T06:24:30;11.30;99.90
47310;DHT22;33046;52.270;6.832;2022-12-29T06:26:37;11.30;99.90
47310;DHT22;33046;52.270;6.832;2022-12-29T06:28:43;11.30;99.90
47310;DHT22;33046;52.270;6.832;2022-12-29T06:30:50;11.30;99.90
47310;DHT22;33046;52.270;6.832;2022-12-29T06:32:59;11.30;99.90
47310;DHT22;33046;52.270;6.832;2022-12-29T06:35:06;11.20;99.90
47310;DHT22;33046;52.270;6.832;2022-12-29T06:37:18;11.20;99.90
47310;DHT22;33046;52.270;6.832;2022-12-29T06:39:25;11.20;99.90
47310;DHT22;33046;52.270;6.832;2022-12-29T06:41:44;11.20;99.90
47310;DHT22;33046;52.270;6.832;2022-12-29T06:44:21;11.20;99.90
47310;DHT22;33046;52.270;6.832;2022-12-29T06:46:29;11.10;99.90
47310;DHT22;33046;52.270;6.832;2022-12-29T06:48:38;11.10;99.90
47310;DHT22;33046;52.270;6.832;2022-12-29T06:50:45;11.10;99.90
47310;DHT22;33046;52.270;6.832;2022-12-29T06:52:51;11.10;99.90
47310;DHT22;33046;52.270;6.832;2022-12-29T06:54:58;11.10;99.90
47310;DHT22;33046;52.270;6.832;2022-12-29T06:57:05;11.10;99.90
47310;DHT22;33046;52.270;6.832;2022-12-29T06:59:12;11.10;99.90
47310;DHT22;33046;52.270;6.832;2022-12-29T07:01:19;11.10;99.90
47310;DHT22;33046;52.270;6.832;2022-12-29T07:03:25;11.10;99.90
47310;DHT22;33046;52.270;6.832;2022-12-29T07:05:33;11.10;99.90
47310;DHT22;33046;52.270;6.832;2022-12-29T07:07:40;11.10;99.90
47310;DHT22;33046;52.270;6.832;2022-12-29T07:09:47;11.10;99.90
47310;DHT22;33046;52.270;6.832;2022-12-29T07:11:54;11.10;99.90
47310;DHT22;33046;52.270;6.832;2022-12-29T07:14:02;11.10;99.90
47310;DHT22;33046;52.270;6.832;2022-12-29T07:16:09;11.10;99.90
47310;DHT22;33046;52.270;6.832;2022-12-29T07:18:16;11.10;99.90
47310;DHT22;33046;52.270;6.832;2022-12-29T07:20:23;11.10;99.90
47310;DHT22;33046;52.270;6.832;2022-12-29T07:22:33;11.10;99.90
47310;DHT22;33046;52.270;6.832;2022-12-29T07:24:40;11.10;99.90
47310;DHT22;33046;52.270;6.832;2022-12-29T07:26:47;11.10;99.90
47310;DHT22;33046;52.270;6.832;2022-12-29T07:28:54;11.10;99.90
47310;DHT22;33046;52.270;6.832;2022-12-29T07:31:01;11.10;99.90
47310;DHT22;33046;52.270;6.832;2022-12-29T07:33:08;11.10;99.90
47310;DHT22;33046;52.270;6.832;2022-12-29T07:35:14;11.10;99.90
47310;DHT22;33046;52.270;6.832;2022-12-29T07:37:21;11.10;99.90
47310;DHT22;33046;52.270;6.832;2022-12-29T07:39:29;11.10;99.90
47310;DHT22;33046;52.270;6.832;2022-12-29T07:41:36;11.00;99.90
47310;DHT22;33046;52.270;6.832;2022-12-29T07:43:46;11.10;99.90
47310;DHT22;33046;52.270;6.832;2022-12-29T07:46:08;11.10;99.90
47310;DHT22;33046;52.270;6.832;2022-12-29T07:48:17;11.10;99.90
47310;DHT22;33046;52.270;6.832;2022-12-29T07:50:24;11.10;99.90
47310;DHT22;33046;52.270;6.832;2022-12-29T07:52:31;11.10;99.90
47310;DHT22;33046;52.270;6.832;2022-12-29T07:54:39;11.00;99.90
47310;DHT22;33046;52.270;6.832;2022-12-29T07:56:46;11.00;99.90
47310;DHT22;33046;52.270;6.832;2022-12-29T07:58:52;11.10;99.90
47310;DHT22;33046;52.270;6.832;2022-12-29T08:00:59;11.10;99.90
47310;DHT22;33046;52.270;6.832;2022-12-29T08:03:06;11.10;99.90
47310;DHT22;33046;52.270;6.832;2022-12-29T08:05:13;11.00;99.90
47310;DHT22;33046;52.270;6.832;2022-12-29T08:07:20;11.10;99.90
47310;DHT22;33046;52.270;6.832;2022-12-29T08:09:27;11.10;99.90
47310;DHT22;33046;52.270;6.832;2022-12-29T08:11:35;11.00;99.90
47310;DHT22;33046;52.270;6.832;2022-12-29T08:13:42;11.10;99.90
47310;DHT22;33046;52.270;6.832;2022-12-29T08:15:48;11.10;99.90
47310;DHT22;33046;52.270;6.832;2022-12-29T08:17:55;11.10;99.90
47310;DHT22;33046;52.270;6.832;2022-12-29T08:20:03;11.10;99.90
47310;DHT22;33046;52.270;6.832;2022-12-29T08:22:10;11.10;99.90
47310;DHT22;33046;52.270;6.832;2022-12-29T08:24:17;11.10;99.90
47310;DHT22;33046;52.270;6.832;2022-12-29T08:26:24;11.10;99.90
47310;DHT22;33046;52.270;6.832;2022-12-29T08:28:32;11.10;99.90
47310;DHT22;33046;52.270;6.832;2022-12-29T08:30:39;11.10;99.90
47310;DHT22;33046;52.270;6.832;2022-12-29T08:32:46;11.10;99.90
47310;DHT22;33046;52.270;6.832;2022-12-29T08:34:53;11.10;99.90
47310;DHT22;33046;52.270;6.832;2022-12-29T08:37:00;11.10;99.90
47310;DHT22;33046;52.270;6.832;2022-12-29T08:39:07;11.10;99.90
47310;DHT22;33046;52.270;6.832;2022-12-29T08:41:13;11.20;99.90
47310;DHT22;33046;52.270;6.832;2022-12-29T08:43:20;11.20;99.90
47310;DHT22;33046;52.270;6.832;2022-12-29T08:45:28;11.20;99.90
47310;DHT22;33046;52.270;6.832;2022-12-29T08:47:35;11.20;99.90
47310;DHT22;33046;52.270;6.832;2022-12-29T08:49:42;11.20;99.90
47310;DHT22;33046;52.270;6.832;2022-12-29T08:51:49;11.20;99.90
47310;DHT22;33046;52.270;6.832;2022-12-29T08:53:55;11.30;99.90
47310;DHT22;33046;52.270;6.832;2022-12-29T08:56:03;11.30;99.90
47310;DHT22;33046;52.270;6.832;2022-12-29T08:58:17;11.40;99.90
47310;DHT22;33046;52.270;6.832;2022-12-29T09:00:24;11.40;99.90
47310;DHT22;33046;52.270;6.832;2022-12-29T09:02:32;11.40;99.90
47310;DHT22;33046;52.270;6.832;2022-12-29T09:04:39;11.40;99.90
47310;DHT22;33046;52.270;6.832;2022-12-29T09:06:46;11.40;99.90
47310;DHT22;33046;52.270;6.832;2022-12-29T09:08:54;11.40;99.90
47310;DHT22;33046;52.270;6.832;2022-12-29T09:11:08;11.50;99.90
47310;DHT22;33046;52.270;6.832;2022-12-29T09:13:16;11.50;99.90
47310;DHT22;33046;52.270;6.832;2022-12-29T09:15:23;11.50;99.90
47310;DHT22;33046;52.270;6.832;2022-12-29T09:17:29;11.50;99.90
47310;DHT22;33046;52.270;6.832;2022-12-29T09:19:38;11.50;99.90
47310;DHT22;33046;52.270;6.832;2022-12-29T09:21:44;11.50;99.90
47310;DHT22;33046;52.270;6.832;2022-12-29T09:23:51;11.50;99.90
47310;DHT22;33046;52.270;6.832;2022-12-29T09:25:58;11.50;99.90
47310;DHT22;33046;52.270;6.832;2022-12-29T09:28:05;11.50;99.90
47310;DHT22;33046;52.270;6.832;2022-12-29T09:30:12;11.50;99.90
47310;DHT22;33046;52.270;6.832;2022-12-29T09:32:19;11.60;99.90
47310;DHT22;33046;52.270;6.832;2022-12-29T09:34:27;11.60;99.90
47310;DHT22;33046;52.270;6.832;2022-12-29T09:36:35;11.60;99.90
47310;DHT22;33046;52.270;6.832;2022-12-29T09:38:42;11.60;99.90
47310;DHT22;33046;52.270;6.832;2022-12-29T09:40:50;11.70;99.90
47310;DHT22;33046;52.270;6.832;2022-12-29T09:45:43;11.70;99.90
47310;DHT22;33046;52.270;6.832;2022-12-29T09:47:51;11.80;99.90
47310;DHT22;33046;52.270;6.832;2022-12-29T09:50:01;11.80;99.90
47310;DHT22;33046;52.270;6.832;2022-12-29T09:52:13;11.80;99.90
47310;DHT22;33046;52.270;6.832;2022-12-29T09:54:30;11.90;99.90
47310;DHT22;33046;52.270;6.832;2022-12-29T09:56:38;11.90;99.90
47310;DHT22;33046;52.270;6.832;2022-12-29T09:58:52;11.90;99.90
47310;DHT22;33046;52.270;6.832;2022-12-29T10:01:02;11.90;99.90
47310;DHT22;33046;52.270;6.832;2022-12-29T10:03:14;11.90;99.90
47310;DHT22;33046;52.270;6.832;2022-12-29T10:05:29;11.90;99.90
47310;DHT22;33046;52.270;6.832;2022-12-29T10:07:47;11.90;99.90
47310;DHT22;33046;52.270;6.832;2022-12-29T10:10:10;11.90;99.90
47310;DHT22;33046;52.270;6.832;2022-12-29T10:12:26;11.90;99.90
47310;DHT22;33046;52.270;6.832;2022-12-29T10:14:52;11.80;99.90
47310;DHT22;33046;52.270;6.832;2022-12-29T10:17:12;11.90;99.90
47310;DHT22;33046;52.270;6.832;2022-12-29T10:19:32;11.80;99.90
47310;DHT22;33046;52.270;6.832;2022-12-29T10:21:52;11.80;99.90
47310;DHT22;33046;52.270;6.832;2022-12-29T10:24:07;11.80;99.90
47310;DHT22;33046;52.270;6.832;2022-12-29T10:26:19;11.80;99.90
47310;DHT22;33046;52.270;6.832;2022-12-29T10:28:34;11.80;99.90
47310;DHT22;33046;52.270;6.832;2022-12-29T10:30:41;11.90;99.90
47310;DHT22;33046;52.270;6.832;2022-12-29T10:32:51;11.90;99.90
47310;DHT22;33046;52.270;6.832;2022-12-29T10:35:05;11.90;99.90
47310;DHT22;33046;52.270;6.832;2022-12-29T10:37:20;11.90;99.90
47310;DHT22;33046;52.270;6.832;2022-12-29T10:39:32;11.90;99.90
47310;DHT22;33046;52.270;6.832;2022-12-29T10:41:43;11.90;99.90
47310;DHT22;33046;52.270;6.832;2022-12-29T10:43:54;11.90;99.90
47310;DHT22;33046;52.270;6.832;2022-12-29T10:46:05;12.00;99.90
47310;DHT22;33046;52.270;6.832;2022-12-29T10:48:20;11.90;99.90
47310;DHT22;33046;52.270;6.832;2022-12-29T10:50:29;11.90;99.90
47310;DHT22;33046;52.270;6.832;2022-12-29T10:52:38;11.90;99.90
47310;DHT22;33046;52.270;6.832;2022-12-29T10:54:50;11.90;99.90
47310;DHT22;33046;52.270;6.832;2022-12-29T10:57:01;11.90;99.90
47310;DHT22;33046;52.270;6.832;2022-12-29T10:59:14;11.90;99.90
47310;DHT22;33046;52.270;6.832;2022-12-29T11:01:23;11.90;99.90
47310;DHT22;33046;52.270;6.832;2022-12-29T11:03:48;11.80;99.90
47310;DHT22;33046;52.270;6.832;2022-12-29T11:05:58;11.80;99.90
47310;DHT22;33046;52.270;6.832;2022-12-29T11:08:10;11.80;99.90
47310;DHT22;33046;52.270;6.832;2022-12-29T11:10:28;11.80;99.90
47310;DHT22;33046;52.270;6.832;2022-12-29T11:12:35;11.90;99.90
47310;DHT22;33046;52.270;6.832;2022-12-29T11:14:42;11.80;99.90
47310;DHT22;33046;52.270;6.832;2022-12-29T11:16:57;11.80;99.90
47310;DHT22;33046;52.270;6.832;2022-12-29T11:19:05;11.80;99.90
47310;DHT22;33046;52.270;6.832;2022-12-29T11:21:26;11.80;99.90
47310;DHT22;33046;52.270;6.832;2022-12-29T11:23:36;11.80;99.90
47310;DHT22;33046;52.270;6.832;2022-12-29T11:25:45;11.80;99.90
47310;DHT22;33046;52.270;6.832;2022-12-29T11:28:00;11.70;99.90
47310;DHT22;33046;52.270;6.832;2022-12-29T11:30:23;11.80;99.90
47310;DHT22;33046;52.270;6.832;2022-12-29T11:32:30;11.80;99.90
47310;DHT22;33046;52.270;6.832;2022-12-29T11:34:37;11.70;99.90
47310;DHT22;33046;52.270;6.832;2022-12-29T11:36:44;11.70;99.90
47310;DHT22;33046;52.270;6.832;2022-12-29T11:38:52;11.80;99.90
47310;DHT22;33046;52.270;6.832;2022-12-29T11:41:02;11.70;99.90
47310;DHT22;33046;52.270;6.832;2022-12-29T11:43:19;11.70;99.90
47310;DHT22;33046;52.270;6.832;2022-12-29T11:45:30;11.70;99.90
47310;DHT22;33046;52.270;6.832;2022-12-29T11:47:37;11.70;99.90
47310;DHT22;33046;52.270;6.832;2022-12-29T11:49:49;11.70;99.90
47310;DHT22;33046;52.270;6.832;2022-12-29T11:51:56;11.70;99.90
47310;DHT22;33046;52.270;6.832;2022-12-29T11:54:04;11.70;99.90
47310;DHT22;33046;52.270;6.832;2022-12-29T11:56:15;11.70;99.90
47310;DHT22;33046;52.270;6.832;2022-12-29T11:58:29;11.70;99.90
47310;DHT22;33046;52.270;6.832;2022-12-29T12:00:37;11.70;99.90
47310;DHT22;33046;52.270;6.832;2022-12-29T12:02:54;11.60;99.90
47310;DHT22;33046;52.270;6.832;2022-12-29T12:05:10;11.60;99.90
47310;DHT22;33046;52.270;6.832;2022-12-29T12:07:22;11.70;99.90
47310;DHT22;33046;52.270;6.832;2022-12-29T12:09:34;11.70;99.90
47310;DHT22;33046;52.270;6.832;2022-12-29T12:11:43;11.70;99.90
47310;DHT22;33046;52.270;6.832;2022-12-29T12:13:58;11.70;99.90
47310;DHT22;33046;52.270;6.832;2022-12-29T12:16:15;11.70;99.90
47310;DHT22;33046;52.270;6.832;2022-12-29T12:18:37;11.70;99.90
47310;DHT22;33046;52.270;6.832;2022-12-29T12:20:49;11.70;99.90
47310;DHT22;33046;52.270;6.832;2022-12-29T12:23:06;11.70;99.90
47310;DHT22;33046;52.270;6.832;2022-12-29T12:25:17;11.60;99.90
47310;DHT22;33046;52.270;6.832;2022-12-29T12:27:31;11.70;99.90
47310;DHT22;33046;52.270;6.832;2022-12-29T12:29:46;11.70;99.90
47310;DHT22;33046;52.270;6.832;2022-12-29T12:31:57;11.70;99.90
47310;DHT22;33046;52.270;6.832;2022-12-29T12:34:09;11.70;99.90
47310;DHT22;33046;52.270;6.832;2022-12-29T12:38:51;11.70;99.90
47310;DHT22;33046;52.270;6.832;2022-12-29T12:41:06;11.70;99.90
47310;DHT22;33046;52.270;6.832;2022-12-29T12:43:33;11.60;99.90
47310;DHT22;33046;52.270;6.832;2022-12-29T12:45:48;11.70;99.90
47310;DHT22;33046;52.270;6.832;2022-12-29T12:48:06;11.70;99.90
47310;DHT22;33046;52.270;6.832;2022-12-29T12:50:31;11.60;99.90
47310;DHT22;33046;52.270;6.832;2022-12-29T12:53:10;11.60;99.90
47310;DHT22;33046;52.270;6.832;2022-12-29T12:55:35;11.60;99.90
47310;DHT22;33046;52.270;6.832;2022-12-29T12:57:52;11.60;99.90
47310;DHT22;33046;52.270;6.832;2022-12-29T13:00:07;11.60;99.90
47310;DHT22;33046;52.270;6.832;2022-12-29T13:02:27;11.60;99.90
47310;DHT22;33046;52.270;6.832;2022-12-29T13:05:01;11.50;99.90
47310;DHT22;33046;52.270;6.832;2022-12-29T13:07:16;11.50;99.90
47310;DHT22;33046;52.270;6.832;2022-12-29T13:09:42;11.50;99.90
47310;DHT22;33046;52.270;6.832;2022-12-29T13:12:02;11.50;99.90
47310;DHT22;33046;52.270;6.832;2022-12-29T13:14:20;11.50;99.90
47310;DHT22;33046;52.270;6.832;2022-12-29T13:16:34;11.50;99.90
47310;DHT22;33046;52.270;6.832;2022-12-29T13:18:50;11.50;99.90
47310;DHT22;33046;52.270;6.832;2022-12-29T13:21:03;11.40;99.90
47310;DHT22;33046;52.270;6.832;2022-12-29T13:23:17;11.50;99.90
47310;DHT22;33046;52.270;6.832;2022-12-29T13:25:31;11.40;99.90
47310;DHT22;33046;52.270;6.832;2022-12-29T13:27:46;11.40;99.90
47310;DHT22;33046;52.270;6.832;2022-12-29T13:30:00;11.50;99.90
47310;DHT22;33046;52.270;6.832;2022-12-29T13:32:21;11.40;99.90
47310;DHT22;33046;52.270;6.832;2022-12-29T13:34:38;11.50;99.90
47310;DHT22;33046;52.270;6.832;2022-12-29T13:36:52;11.50;99.90
47310;DHT22;33046;52.270;6.832;2022-12-29T13:39:04;11.50;99.90
47310;DHT22;33046;52.270;6.832;2022-12-29T13:41:16;11.50;99.90
47310;DHT22;33046;52.270;6.832;2022-12-29T13:43:25;11.40;99.90
47310;DHT22;33046;52.270;6.832;2022-12-29T13:45:34;11.40;99.90
47310;DHT22;33046;52.270;6.832;2022-12-29T13:47:46;11.50;99.90
47310;DHT22;33046;52.270;6.832;2022-12-29T13:49:55;11.50;99.90
47310;DHT22;33046;52.270;6.832;2022-12-29T13:52:09;11.40;99.90
47310;DHT22;33046;52.270;6.832;2022-12-29T13:54:27;11.50;99.90
47310;DHT22;33046;52.270;6.832;2022-12-29T13:56:39;11.50;99.90
47310;DHT22;33046;52.270;6.832;2022-12-29T13:58:52;11.50;99.90
47310;DHT22;33046;52.270;6.832;2022-12-29T14:01:03;11.50;99.90
47310;DHT22;33046;52.270;6.832;2022-12-29T14:03:36;11.50;99.90
47310;DHT22;33046;52.270;6.832;2022-12-29T14:06:04;11.50;99.90